Time;durP1;ratioP1;P1;durP2;ratioP2;P2;SDS_P1;SDS_P2;PMS_P1;PMS_P2;Temp;Humidity;BMP_temperature;BMP_pressure;BME280_temperature;BME280_humidity;BME280_pressure;Samples;Min_cycle;Max_cycle;Signal;HPM_P1;HPM_P2
2022/02/11 00:00:50;;;;;;;;;10.50;9.75;;;;;9.94;60.64;102328.44;5102277;27;46009;-65
2022/02/11 00:08:18;;;;;;;;;8.50;8.50;;;;;9.85;60.39;102331.19;5091394;27;45484;-65
2022/02/11 00:10:43;;;;;;;;;10.00;10.00;;;;;9.86;60.77;102336.50;5101686;27;46277;-65
2022/02/11 00:13:09;;;;;;;;;10.50;9.00;;;;;9.87;60.43;102335.59;5102446;27;45372;-65
2022/02/11 00:15:44;;;;;;;;;13.50;11.50;;;;;9.87;60.45;102337.38;5101868;27;45289;-65
2022/02/11 00:18:15;;;;;;;;;11.75;11.75;;;;;9.82;60.53;102337.41;5102181;27;45375;-65
2022/02/11 00:20:44;;;;;;;;;11.00;10.50;;;;;9.80;60.44;102339.19;5102038;27;45405;-65
2022/02/11 00:23:09;;;;;;;;;13.50;9.50;;;;;9.77;60.68;102339.19;5100681;27;47503;-65
2022/02/11 00:25:45;;;;;;;;;12.50;11.00;;;;;9.79;60.45;102343.66;5101963;27;45438;-65
2022/02/11 00:33:40;;;;;;;;;9.00;9.00;;;;;9.76;60.63;102340.97;5101319;27;45715;-65
2022/02/11 00:36:07;;;;;;;;;11.00;10.00;;;;;9.75;60.21;102335.66;5102057;27;45309;-65
2022/02/11 01:02:11;;;;;;;;;10.25;9.00;;;;;9.69;59.77;102357.91;5101785;27;45407;-65
2022/02/11 01:03:55;;;;;;;;;10.25;10.25;;;;;9.67;60.68;102354.31;5095629;27;45816;-65
2022/02/11 01:06:13;;;;;;;;;12.25;11.25;;;;;9.63;60.06;102348.13;5101080;27;45289;-65
2022/02/11 01:08:40;;;;;;;;;10.75;9.25;;;;;9.54;59.79;102337.50;5101047;27;45243;-65
2022/02/11 01:11:10;;;;;;;;;9.50;9.50;;;;;9.67;60.38;102359.66;5099623;27;46525;-65
2022/02/11 01:13:36;;;;;;;;;12.00;10.00;;;;;9.68;60.31;102364.13;5099338;27;46426;-65
2022/02/11 01:16:07;;;;;;;;;12.25;9.50;;;;;9.65;60.29;102361.44;5101213;27;45317;-65
2022/02/11 01:18:33;;;;;;;;;11.00;11.00;;;;;9.64;60.01;102367.69;5114814;27;45420;-65
2022/02/11 01:21:08;;;;;;;;;9.00;8.25;;;;;9.62;59.99;102375.69;5101123;27;45376;-65
2022/02/11 01:36:49;;;;;;;;;9.50;8.25;;;;;9.57;59.61;102387.25;5100098;27;45443;-65
2022/02/11 01:44:56;;;;;;;;;7.00;7.00;;;;;9.51;60.02;102385.50;5098501;27;45308;-66
2022/02/11 01:52:57;;;;;;;;;8.00;7.25;;;;;9.45;59.51;102393.47;5099086;27;45744;-65
2022/02/11 02:37:18;;;;;;;;;8.00;7.00;;;;;9.33;58.81;102420.16;5107262;27;45257;-65
2022/02/11 02:59:02;;;;;;;;;5.25;4.50;;;;;9.32;58.68;102442.34;5099501;27;45672;-65
2022/02/11 04:55:45;;;;;;;;;4.25;4.25;;;;;8.92;58.81;102567.50;5101168;27;46791;-65
2022/02/11 05:00:54;;;;;;;;;3.50;3.50;;;;;8.94;58.77;102581.69;5100607;27;45662;-64
2022/02/11 05:03:19;;;;;;;;;9.25;8.25;;;;;8.88;58.79;102574.59;5101674;27;45331;-64
2022/02/11 05:05:51;;;;;;;;;6.75;4.00;;;;;8.92;58.63;102583.47;5101354;27;45528;-65
2022/02/11 05:08:20;;;;;;;;;4.50;3.50;;;;;8.92;58.99;102584.38;5099092;27;46421;-65
2022/02/11 05:10:46;;;;;;;;;4.00;4.00;;;;;8.86;59.21;102585.22;5100637;27;45503;-65
2022/02/11 05:13:13;;;;;;;;;7.50;7.00;;;;;8.87;58.86;102596.75;5101603;27;45244;-65
2022/02/11 05:15:38;;;;;;;;;7.50;3.75;;;;;8.86;59.04;102593.22;5101124;27;45599;-65
2022/02/11 05:18:05;;;;;;;;;4.00;4.00;;;;;8.86;58.57;102592.34;5100886;27;46027;-65
2022/02/11 05:20:30;;;;;;;;;5.25;5.25;;;;;8.86;59.02;102598.53;5100699;27;45315;-65
2022/02/11 05:22:55;;;;;;;;;11.50;5.25;;;;;8.86;58.72;102600.34;5101096;27;45418;-65
2022/02/11 05:25:21;;;;;;;;;4.75;4.00;;;;;8.75;59.25;102575.41;5099231;27;45292;-65
2022/02/11 05:27:46;;;;;;;;;5.00;5.00;;;;;8.74;59.17;102582.53;5099993;27;45946;-65
2022/02/11 05:30:12;;;;;;;;;8.00;6.00;;;;;8.83;59.00;102606.53;5100848;27;45415;-65
2022/02/11 05:32:38;;;;;;;;;6.00;6.00;;;;;8.80;58.87;102608.28;5100371;27;45376;-65
2022/02/11 05:35:03;;;;;;;;;8.00;5.50;;;;;8.81;59.02;102626.06;5100961;27;45439;-65
2022/02/11 05:37:29;;;;;;;;;6.50;4.00;;;;;8.80;58.74;102624.25;5100889;27;46137;-65
2022/02/11 05:39:54;;;;;;;;;5.25;5.25;;;;;8.71;58.93;102610.00;5098871;27;45348;-65
2022/02/11 05:42:20;;;;;;;;;9.00;5.50;;;;;8.81;58.77;102634.91;5098288;27;45484;-65
2022/02/11 05:44:45;;;;;;;;;8.50;5.25;;;;;8.79;58.94;102635.81;5100131;27;45419;-65
2022/02/11 05:47:11;;;;;;;;;4.50;3.50;;;;;8.78;58.75;102631.34;5100446;27;46242;-65
2022/02/11 05:49:36;;;;;;;;;7.50;4.75;;;;;8.79;58.75;102641.13;5099635;27;45313;-65
2022/02/11 05:52:02;;;;;;;;;7.75;7.75;;;;;8.68;58.69;102625.97;5100534;27;45227;-65
2022/02/11 05:54:27;;;;;;;;;7.00;5.25;;;;;8.78;58.82;102647.34;5100619;27;45482;-65
2022/02/11 05:56:52;;;;;;;;;5.25;5.25;;;;;8.78;58.68;102644.66;5099002;27;46436;-65
2022/02/11 05:59:18;;;;;;;;;4.00;4.00;;;;;8.76;58.93;102643.78;5100176;27;46921;-65
2022/02/11 06:01:44;;;;;;;;;8.50;7.75;;;;;8.74;58.97;102654.41;5100005;27;45463;-65
2022/02/11 06:04:09;;;;;;;;;4.00;4.00;;;;;8.74;58.90;102662.41;5100464;27;45404;-65
2022/02/11 06:06:34;;;;;;;;;5.25;4.75;;;;;8.78;59.03;102663.31;5099004;27;45497;-65
2022/02/11 06:09:00;;;;;;;;;7.75;7.00;;;;;8.77;58.87;102669.50;5100247;27;45340;-65
2022/02/11 06:11:29;;;;;;;;;8.25;6.75;;;;;8.64;58.93;102653.47;5100014;27;45494;-65
2022/02/11 06:13:58;;;;;;;;;3.25;1.00;;;;;8.74;58.82;102667.72;5098905;27;45276;-65
2022/02/11 06:16:24;;;;;;;;;4.75;4.75;;;;;8.69;58.61;102659.72;5100169;27;46086;-65
2022/02/11 06:18:50;;;;;;;;;8.00;7.50;;;;;8.72;58.80;102666.84;5113740;27;45315;-65
2022/02/11 06:21:16;;;;;;;;;8.75;6.75;;;;;8.72;58.71;102669.50;5098246;27;45374;-65
2022/02/11 06:23:42;;;;;;;;;8.75;5.00;;;;;8.69;58.84;102669.47;5098448;27;45432;-65
2022/02/11 06:26:07;;;;;;;;;6.75;6.75;;;;;8.65;58.68;102665.91;5099958;27;45435;-65
2022/02/11 06:28:33;;;;;;;;;8.50;7.00;;;;;8.69;58.88;102682.78;5099075;27;45253;-65
2022/02/11 06:30:58;;;;;;;;;8.50;7.00;;;;;8.67;58.78;102682.78;5098649;27;45237;-65
2022/02/11 06:33:24;;;;;;;;;6.00;6.00;;;;;8.62;59.08;102684.53;5099990;27;45508;-65
2022/02/11 06:35:49;;;;;;;;;8.00;7.00;;;;;8.64;59.30;102693.41;5098886;27;45404;-65
2022/02/11 06:38:17;;;;;;;;;6.75;6.00;;;;;8.57;58.55;102688.00;5098273;27;45649;-65
2022/02/11 06:40:42;;;;;;;;;7.75;7.75;;;;;8.59;59.15;102686.28;5098457;27;45440;-65
2022/02/11 06:43:08;;;;;;;;;7.25;7.00;;;;;8.59;59.07;102692.47;5098961;27;45624;-65
2022/02/11 06:45:33;;;;;;;;;6.25;4.00;;;;;8.60;58.70;102712.00;5098896;27;46859;-65
2022/02/11 06:47:59;;;;;;;;;9.75;7.00;;;;;8.53;58.88;102705.72;5096006;27;45465;-66
2022/02/11 06:50:24;;;;;;;;;8.00;6.00;;;;;8.56;58.98;102715.53;5099581;27;45402;-66
2022/02/11 06:52:50;;;;;;;;;10.00;6.25;;;;;8.56;59.01;102716.41;5099149;27;45369;-65
2022/02/11 06:55:15;;;;;;;;;8.00;6.25;;;;;8.57;58.88;102711.97;5097764;27;45941;-65
2022/02/11 06:57:42;;;;;;;;;4.00;4.00;;;;;8.53;58.64;102714.59;5096917;27;45504;-66
2022/02/11 07:00:12;;;;;;;;;8.00;6.00;;;;;8.45;58.66;102707.44;5099023;27;45410;-65
2022/02/11 07:02:38;;;;;;;;;7.00;7.00;;;;;8.50;58.63;102719.94;5101860;27;45466;-66
2022/02/11 07:05:04;;;;;;;;;7.00;5.75;;;;;8.50;58.81;102719.94;5099355;27;45542;-66
2022/02/11 07:07:29;;;;;;;;;7.50;7.00;;;;;8.52;59.11;102727.94;5081592;27;45357;-66
2022/02/11 07:09:55;;;;;;;;;4.75;4.75;;;;;8.49;59.16;102734.09;5101341;27;45326;-66
2022/02/11 07:12:21;;;;;;;;;7.75;4.00;;;;;8.52;58.93;102743.91;5104754;27;45314;-66
2022/02/11 07:14:46;;;;;;;;;5.25;4.00;;;;;8.48;59.06;102748.28;5098848;27;45479;-66
2022/02/11 07:17:12;;;;;;;;;7.75;7.00;;;;;8.51;59.26;102763.41;5099931;27;45605;-66
2022/02/11 07:19:40;;;;;;;;;8.00;7.25;;;;;8.49;59.23;102767.81;5103094;27;45530;-66
2022/02/11 07:22:06;;;;;;;;;7.25;7.25;;;;;8.52;59.30;102775.84;5101695;27;45413;-66
2022/02/11 07:24:31;;;;;;;;;8.00;6.00;;;;;8.50;59.19;102774.91;5100674;27;45553;-66
2022/02/11 07:26:57;;;;;;;;;13.75;9.75;;;;;8.55;59.29;102777.63;5089033;27;45211;-65
2022/02/11 07:29:23;;;;;;;;;7.25;6.75;;;;;8.53;58.99;102782.94;5102430;27;45415;-65
2022/02/11 07:31:49;;;;;;;;;7.50;7.50;;;;;8.58;59.09;102793.63;5095188;27;46898;-65
2022/02/11 07:34:15;;;;;;;;;7.50;7.50;;;;;8.51;58.99;102792.69;5101678;27;45472;-65
2022/02/11 07:36:40;;;;;;;;;7.00;6.50;;;;;8.51;59.20;102800.66;5101166;27;45558;-65
2022/02/11 07:39:06;;;;;;;;;12.50;8.25;;;;;8.51;59.01;102806.88;5102724;27;45551;-66
2022/02/11 07:41:31;;;;;;;;;9.50;8.00;;;;;8.56;58.92;102817.56;5097397;27;45560;-65
2022/02/11 07:43:57;;;;;;;;;9.75;9.00;;;;;8.52;59.21;102808.66;5101046;27;45418;-65
2022/02/11 07:46:23;;;;;;;;;7.25;6.50;;;;;8.57;59.14;102830.00;5096992;27;45480;-65
2022/02/11 07:48:48;;;;;;;;;10.50;8.00;;;;;8.56;59.25;102817.56;5106261;27;45681;-66
2022/02/11 07:51:14;;;;;;;;;7.00;7.00;;;;;8.46;59.11;102807.72;5101050;27;45140;-65
2022/02/11 07:53:39;;;;;;;;;13.00;10.00;;;;;8.51;59.30;102824.63;5096461;27;45469;-66
2022/02/11 07:56:05;;;;;;;;;8.75;6.25;;;;;8.52;58.94;102839.72;5100845;27;46830;-66
2022/02/11 07:58:30;;;;;;;;;10.50;7.50;;;;;8.50;59.52;102836.13;5100313;27;45304;-66
2022/02/11 08:00:57;;;;;;;;;8.50;7.00;;;;;8.55;59.25;102841.50;5101500;27;45210;-66
2022/02/11 08:03:23;;;;;;;;;5.75;5.75;;;;;8.53;59.31;102837.06;5099109;27;46434;-65
2022/02/11 08:05:49;;;;;;;;;8.00;7.50;;;;;8.53;59.05;102834.38;5099121;27;45548;-65
2022/02/11 08:08:14;;;;;;;;;7.75;7.75;;;;;8.53;59.25;102842.38;5102349;27;45375;-64
2022/02/11 08:10:39;;;;;;;;;9.00;8.00;;;;;8.53;59.58;102844.16;5098054;27;45522;-65
2022/02/11 08:13:05;;;;;;;;;9.75;8.25;;;;;8.58;59.10;102855.75;5099128;27;45534;-65
2022/02/11 08:15:30;;;;;;;;;9.25;8.00;;;;;8.55;59.50;102857.47;5097831;27;45410;-65
2022/02/11 08:17:56;;;;;;;;;8.25;7.00;;;;;8.59;59.46;102867.31;5098779;27;45679;-65
2022/02/11 08:20:21;;;;;;;;;8.75;8.50;;;;;8.59;59.43;102868.19;5095913;27;45714;-65
2022/02/11 08:22:47;;;;;;;;;9.25;8.00;;;;;8.61;59.83;102878.84;5100803;27;45437;-65
2022/02/11 08:25:12;;;;;;;;;8.00;7.75;;;;;8.62;59.64;102883.28;5100791;27;45379;-65
2022/02/11 08:27:40;;;;;;;;;7.75;7.75;;;;;8.61;59.22;102878.84;5100702;27;45412;-65
2022/02/11 08:30:07;;;;;;;;;9.50;7.75;;;;;8.62;59.58;102881.53;5100289;27;45373;-65
2022/02/11 08:32:32;;;;;;;;;9.00;8.50;;;;;8.61;59.65;102879.72;5099194;27;45710;-65
2022/02/11 08:34:58;;;;;;;;;7.25;7.25;;;;;8.64;59.59;102884.22;5100675;27;45325;-65
2022/02/11 08:37:25;;;;;;;;;12.25;10.00;;;;;8.69;59.53;102901.13;5101143;27;45494;-66
2022/02/11 08:39:51;;;;;;;;;8.00;7.50;;;;;8.59;59.13;102886.81;5100741;27;45537;-66
2022/02/11 08:42:19;;;;;;;;;9.25;7.75;;;;;8.69;59.12;102906.44;5099465;27;46180;-64
2022/02/11 08:44:44;;;;;;;;;10.00;9.00;;;;;8.63;59.39;102895.72;5100852;27;45336;-70
2022/02/11 08:47:09;;;;;;;;;10.00;8.50;;;;;8.63;59.25;102901.03;5096940;27;45452;-75
2022/02/11 08:49:35;;;;;;;;;7.25;7.25;;;;;8.67;59.20;102908.19;5099151;27;45499;-74
2022/02/11 08:52:00;;;;;;;;;10.00;10.00;;;;;8.66;59.45;102901.97;5097793;27;45417;-71
2022/02/11 08:54:26;;;;;;;;;8.00;8.00;;;;;8.70;59.15;102909.13;5100762;27;45340;-72
2022/02/11 08:56:51;;;;;;;;;10.50;8.00;;;;;8.62;59.13;102894.84;5103715;27;45487;-71
2022/02/11 08:59:16;;;;;;;;;9.75;8.50;;;;;8.75;59.83;102919.78;5100261;27;45507;-71
2022/02/11 09:01:42;;;;;;;;;9.25;8.25;;;;;8.74;59.61;102918.03;5098197;27;46000;-71
2022/02/11 09:04:08;;;;;;;;;8.00;7.00;;;;;8.78;59.23;102921.63;5091981;27;45444;-68
2022/02/11 09:06:33;;;;;;;;;10.50;10.50;;;;;8.74;59.40;102918.03;5100125;27;45992;-71
2022/02/11 09:08:58;;;;;;;;;6.75;6.75;;;;;8.78;59.51;102925.16;5105782;27;45415;-73
2022/02/11 09:11:24;;;;;;;;;9.50;9.50;;;;;8.79;59.23;102923.41;5097603;27;48349;-73
2022/02/11 09:13:50;;;;;;;;;9.50;8.75;;;;;8.83;59.45;102923.44;5097933;27;46084;-73
2022/02/11 09:16:18;;;;;;;;;9.00;7.00;;;;;8.79;59.07;102918.97;5092991;27;45521;-73
2022/02/11 09:18:43;;;;;;;;;10.50;10.00;;;;;8.92;59.13;102937.72;5088912;27;45502;-73
2022/02/11 09:21:09;;;;;;;;;12.00;9.50;;;;;8.93;59.30;102947.50;5099309;27;46634;-73
2022/02/11 09:23:35;;;;;;;;;11.25;11.25;;;;;8.81;59.21;102924.31;5091454;27;45415;-73
2022/02/11 09:26:01;;;;;;;;;9.25;9.25;;;;;8.92;59.26;102935.06;5095433;27;45364;-74
2022/02/11 09:28:26;;;;;;;;;12.25;9.25;;;;;9.03;58.83;102957.38;5095081;27;45889;-73
2022/02/11 09:30:52;;;;;;;;;11.75;10.50;;;;;8.95;59.17;102953.75;5095368;27;46118;-73
2022/02/11 09:33:17;;;;;;;;;8.50;7.25;;;;;9.02;59.40;102967.16;5099744;27;45388;-73
2022/02/11 09:35:43;;;;;;;;;13.75;10.25;;;;;9.01;58.66;102962.69;5098215;27;45367;-73
2022/02/11 09:38:09;;;;;;;;;9.75;9.00;;;;;9.02;59.14;102959.16;5098717;27;45405;-73
2022/02/11 09:40:39;;;;;;;;;9.25;7.50;;;;;8.98;59.13;102946.66;5091331;27;46577;-73
2022/02/11 09:43:09;;;;;;;;;9.25;7.75;;;;;9.03;59.05;102957.38;5088892;27;45642;-73
2022/02/11 09:45:35;;;;;;;;;8.50;7.00;;;;;8.97;58.94;102944.91;5094706;27;45587;-73
2022/02/11 09:48:01;;;;;;;;;7.50;7.50;;;;;9.17;59.25;102982.38;5090265;27;45489;-73
2022/02/11 09:50:28;;;;;;;;;8.00;7.50;;;;;9.18;58.67;102983.28;5099084;27;46087;-73
2022/02/11 09:52:54;;;;;;;;;13.50;9.00;;;;;9.12;58.65;102984.13;5098991;27;45892;-73
2022/02/11 09:55:32;;;;;;;;;10.50;8.50;;;;;9.03;58.91;102954.72;5093498;27;45434;-73
2022/02/11 09:58:04;;;;;;;;;13.25;9.00;;;;;9.21;58.52;102984.19;5100998;27;45478;-73
2022/02/11 10:00:30;;;;;;;;;11.00;7.00;;;;;9.21;59.02;102978.84;5098135;27;45519;-73
2022/02/11 10:03:05;;;;;;;;;13.00;9.75;;;;;9.29;58.39;102989.59;5092112;27;45629;-73
2022/02/11 10:05:34;;;;;;;;;11.25;9.75;;;;;9.17;58.30;102965.47;5097078;27;45705;-73
2022/02/11 10:08:02;;;;;;;;;10.25;8.50;;;;;9.24;58.57;102981.56;5097986;27;45451;-73
2022/02/11 10:10:39;;;;;;;;;10.25;8.75;;;;;9.37;58.84;102989.66;5098168;27;46354;-73
2022/02/11 10:13:07;;;;;;;;;5.50;5.50;;;;;9.23;58.57;102958.44;5097622;27;45754;-73
2022/02/11 10:15:34;;;;;;;;;7.50;6.50;;;;;9.37;57.29;102982.56;5097695;27;45477;-73
2022/02/11 10:18:00;;;;;;;;;6.50;5.00;;;;;9.28;57.80;102970.03;5096260;27;45412;-72
2022/02/11 10:20:29;;;;;;;;;4.25;3.25;;;;;9.14;57.40;102950.38;5097502;27;45565;-72
2022/02/11 10:23:11;;;;;;;;;5.50;4.50;;;;;9.39;57.94;102993.25;5091225;27;45530;-73
2022/02/11 10:26:07;;;;;;;;;10.25;8.25;;;;;9.42;58.13;102999.50;5098020;27;45580;-73
2022/02/11 10:28:43;;;;;;;;;18.00;14.50;;;;;9.44;57.75;103005.72;5099241;27;45801;-74
2022/02/11 10:31:10;;;;;;;;;13.50;13.00;;;;;9.49;58.02;103008.44;5097901;27;45731;-72
2022/02/11 10:33:52;;;;;;;;;8.00;7.50;;;;;9.43;57.87;102995.91;5098045;27;45650;-74
2022/02/11 10:36:29;;;;;;;;;8.00;3.75;;;;;9.51;57.42;103008.44;5098993;27;45398;-75
2022/02/11 10:39:07;;;;;;;;;10.50;8.25;;;;;9.40;57.49;102998.56;5102103;27;46645;-73
2022/02/11 10:41:35;;;;;;;;;7.25;7.25;;;;;9.41;57.77;102997.69;5097962;27;45665;-73
2022/02/11 10:44:12;;;;;;;;;13.00;7.75;;;;;9.53;57.46;103012.88;5100950;27;45531;-74
2022/02/11 10:46:44;;;;;;;;;7.75;7.00;;;;;9.52;57.02;103011.13;5102076;27;45382;-73
2022/02/11 10:49:12;;;;;;;;;7.75;7.75;;;;;9.44;57.77;103003.06;5099012;27;48277;-76
2022/02/11 10:51:46;;;;;;;;;9.75;8.75;;;;;9.47;57.29;102999.50;5100383;27;45557;-74
2022/02/11 10:54:22;;;;;;;;;9.75;9.75;;;;;9.64;57.52;103021.00;5101577;27;45894;-74
2022/02/11 10:56:50;;;;;;;;;11.00;9.00;;;;;9.68;57.23;103035.25;5099991;27;45501;-75
2022/02/11 10:59:28;;;;;;;;;9.00;8.00;;;;;9.63;57.27;103020.09;5100383;27;45576;-75
2022/02/11 11:01:55;;;;;;;;;12.75;8.50;;;;;9.70;57.23;103025.47;5088705;27;45497;-75
2022/02/11 11:04:21;;;;;;;;;7.00;7.00;;;;;9.64;57.87;103021.00;5100249;27;46015;-75
2022/02/11 11:06:47;;;;;;;;;7.00;7.00;;;;;9.77;57.09;103035.31;5102514;27;45533;-74
2022/02/11 11:09:15;;;;;;;;;13.25;9.25;;;;;9.83;57.54;103024.69;5107894;27;45905;-74
2022/02/11 11:11:45;;;;;;;;;9.50;8.50;;;;;9.84;57.22;103026.47;5102331;27;45365;-74
2022/02/11 11:14:16;;;;;;;;;9.75;9.50;;;;;9.86;56.76;103023.81;5100077;27;45704;-74
2022/02/11 11:16:43;;;;;;;;;10.25;7.75;;;;;9.89;56.60;103018.50;5100527;27;45377;-74
2022/02/11 11:19:10;;;;;;;;;14.75;12.00;;;;;9.90;56.70;103026.50;5096650;27;45583;-75
2022/02/11 11:21:39;;;;;;;;;12.00;10.75;;;;;9.91;56.79;103030.97;5092720;27;46489;-75
2022/02/11 11:24:05;;;;;;;;;10.25;5.75;;;;;9.91;55.95;103028.31;5097104;27;45755;-75
2022/02/11 11:26:48;;;;;;;;;14.50;12.75;;;;;9.91;56.90;103022.97;5091043;27;45397;-74
2022/02/11 11:29:18;;;;;;;;;18.00;14.50;;;;;9.94;56.40;103025.66;5100880;27;45322;-75
2022/02/11 11:32:03;;;;;;;;;9.50;9.00;;;;;9.93;56.58;103020.31;5102531;27;45506;-76
2022/02/11 11:34:33;;;;;;;;;14.75;9.75;;;;;9.90;56.98;103006.94;5088559;27;45535;-76
2022/02/11 11:37:10;;;;;;;;;12.75;10.00;;;;;10.00;56.36;103025.69;5097910;27;45357;-76
2022/02/11 11:39:38;;;;;;;;;14.25;10.50;;;;;9.90;56.13;103013.16;5098605;27;45547;-76
2022/02/11 11:42:06;;;;;;;;;14.00;10.75;;;;;9.95;55.32;103024.75;5096964;27;47930;-76
2022/02/11 11:44:50;;;;;;;;;9.75;9.00;;;;;9.86;55.79;103016.72;5086562;27;45626;-76
2022/02/11 11:47:27;;;;;;;;;8.25;7.50;;;;;9.93;55.94;103025.66;5095636;27;45532;-76
2022/02/11 11:49:53;;;;;;;;;8.25;8.00;;;;;9.89;55.75;103018.50;5104741;27;45440;-76
2022/02/11 11:52:20;;;;;;;;;10.25;10.25;;;;;9.89;56.24;103008.72;5094403;27;46445;-76
2022/02/11 11:54:46;;;;;;;;;14.00;10.25;;;;;10.01;55.64;103030.16;5090408;27;46021;-72
2022/02/11 11:57:17;;;;;;;;;9.75;9.75;;;;;9.80;55.61;102984.66;5101455;27;45449;-75
2022/02/11 11:59:50;;;;;;;;;11.50;10.75;;;;;10.01;55.13;103022.13;5084792;27;45967;-74
2022/02/11 12:02:26;;;;;;;;;11.50;10.75;;;;;10.02;55.12;103026.59;5082961;27;46027;-72
2022/02/11 12:04:53;;;;;;;;;16.25;13.25;;;;;10.06;55.29;103023.97;5089749;27;45806;-73
2022/02/11 12:07:21;;;;;;;;;13.00;11.75;;;;;10.04;55.17;103015.03;5090967;27;45583;-74
2022/02/11 12:09:49;;;;;;;;;12.00;11.75;;;;;10.13;55.19;103025.78;5096145;27;45580;-75
2022/02/11 12:12:18;;;;;;;;;11.00;11.00;;;;;10.11;55.51;103008.88;5093294;27;46579;-76
2022/02/11 12:14:45;;;;;;;;;10.25;10.25;;;;;10.12;55.73;103007.97;5095924;27;45443;-76
2022/02/11 12:17:14;;;;;;;;;14.00;11.25;;;;;10.17;55.17;103003.53;5094172;27;45730;-75
2022/02/11 12:19:41;;;;;;;;;12.50;11.00;;;;;10.17;55.46;103004.47;5096611;27;45918;-75
2022/02/11 12:22:07;;;;;;;;;12.00;11.00;;;;;10.15;54.66;102992.84;5096936;27;45657;-75
2022/02/11 12:27:30;;;;;;;;;12.50;10.75;;;;;10.26;54.70;103006.28;5088285;27;45731;-72
2022/02/11 12:30:00;;;;;;;;;9.50;6.25;;;;;10.01;53.88;102963.44;5096703;27;45583;-75
2022/02/11 12:32:44;;;;;;;;;12.00;10.75;;;;;10.22;54.87;102999.13;5095539;27;46919;-71
2022/02/11 12:35:17;;;;;;;;;11.00;11.00;;;;;10.25;54.31;102995.59;5096950;27;45703;-71
2022/02/11 12:37:45;;;;;;;;;12.75;11.00;;;;;10.34;54.53;103003.66;5090388;27;45821;-73
2022/02/11 12:40:12;;;;;;;;;13.25;11.25;;;;;10.38;54.76;103002.81;5098177;27;45441;-70
2022/02/11 12:42:43;;;;;;;;;12.50;10.00;;;;;10.38;54.42;103001.00;5090905;27;46161;-69
2022/02/11 12:45:11;;;;;;;;;11.00;10.50;;;;;10.37;54.42;102999.25;5096676;27;45700;-72
2022/02/11 12:47:37;;;;;;;;;10.00;9.75;;;;;10.36;54.39;102988.56;5090642;27;45468;-74
2022/02/11 12:50:04;;;;;;;;;12.00;10.25;;;;;10.43;53.96;103000.16;5097378;27;45434;-74
2022/02/11 12:52:34;;;;;;;;;7.50;7.00;;;;;10.35;53.61;102984.97;5107270;27;47602;-75
2022/02/11 12:55:19;;;;;;;;;6.50;6.50;;;;;10.40;53.26;102995.69;5095545;27;46137;-74
2022/02/11 12:57:52;;;;;;;;;6.25;4.50;;;;;10.43;53.69;102994.81;5087840;27;45553;-71
2022/02/11 13:00:24;;;;;;;;;8.50;6.75;;;;;10.38;53.59;102985.00;5097061;27;45798;-71
2022/02/11 13:02:51;;;;;;;;;6.50;6.50;;;;;10.48;53.54;102987.72;5094815;27;46450;-70
2022/02/11 13:05:23;;;;;;;;;6.00;5.00;;;;;10.48;53.78;102988.59;5096943;27;45700;-69
2022/02/11 13:07:51;;;;;;;;;5.00;5.00;;;;;10.43;53.04;102985.03;5093034;27;45715;-69
2022/02/11 13:10:23;;;;;;;;;6.50;5.00;;;;;10.49;53.15;102987.72;5096649;27;45695;-69
2022/02/11 13:12:51;;;;;;;;;6.00;5.25;;;;;10.51;52.95;102993.97;5094976;27;46074;-69
2022/02/11 13:15:19;;;;;;;;;4.75;4.75;;;;;10.50;53.13;102989.50;5096903;27;45430;-69
2022/02/11 13:17:46;;;;;;;;;8.25;8.00;;;;;10.49;52.87;102981.47;5096221;27;45690;-68
2022/02/11 13:20:13;;;;;;;;;3.75;3.75;;;;;10.49;52.54;102984.16;5096197;27;45692;-68
2022/02/11 13:22:42;;;;;;;;;5.25;5.00;;;;;10.53;53.23;102989.50;5093173;27;46056;-68
2022/02/11 13:25:10;;;;;;;;;6.00;4.00;;;;;10.54;52.87;102982.38;5097285;27;45437;-70
2022/02/11 13:27:44;;;;;;;;;6.25;6.25;;;;;10.57;53.08;102979.72;5110692;27;45836;-70
2022/02/11 13:30:15;;;;;;;;;10.25;6.00;;;;;10.59;52.79;102969.94;5095729;27;45482;-69
2022/02/11 13:32:42;;;;;;;;;8.75;5.00;;;;;10.58;52.72;102968.16;5096387;27;46291;-69
2022/02/11 13:35:09;;;;;;;;;5.50;5.50;;;;;10.66;52.15;102969.09;5096808;27;45448;-70
2022/02/11 13:37:43;;;;;;;;;6.00;5.75;;;;;10.69;52.78;102973.53;5097028;27;45740;-70
2022/02/11 13:40:30;;;;;;;;;5.00;4.25;;;;;10.77;52.42;102977.13;5095866;27;45595;-70
2022/02/11 13:43:02;;;;;;;;;9.00;7.50;;;;;10.77;51.99;102978.91;5093098;27;46096;-69
2022/02/11 13:45:28;;;;;;;;;3.75;2.00;;;;;10.75;52.11;102971.75;5101607;27;45803;-70
2022/02/11 13:47:58;;;;;;;;;4.25;4.25;;;;;10.82;52.60;102979.81;5095718;27;45785;-70
2022/02/11 13:50:23;;;;;;;;;6.00;5.25;;;;;10.80;52.32;102969.09;5096336;27;45915;-69
2022/02/11 13:53:02;;;;;;;;;6.00;5.25;;;;;10.75;51.79;102947.72;5096044;27;46064;-70
2022/02/11 13:55:29;;;;;;;;;8.25;6.00;;;;;10.80;51.81;102958.41;5094987;27;45586;-69
2022/02/11 13:57:55;;;;;;;;;6.75;5.50;;;;;10.84;51.63;102970.00;5104764;27;45615;-70
2022/02/11 14:00:37;;;;;;;;;7.75;5.50;;;;;10.83;51.84;102968.25;5096027;27;45459;-70
2022/02/11 14:03:04;;;;;;;;;5.00;4.25;;;;;10.76;51.54;102959.31;5092627;27;47591;-69
2022/02/11 14:05:31;;;;;;;;;5.50;5.50;;;;;10.76;51.39;102962.00;5095452;27;45595;-69
2022/02/11 14:07:56;;;;;;;;;11.50;11.25;;;;;10.81;51.77;102967.31;5093511;27;45711;-69
2022/02/11 14:10:23;;;;;;;;;8.00;5.25;;;;;10.80;51.33;102963.78;5093952;27;45469;-72
2022/02/11 14:12:49;;;;;;;;;6.75;5.75;;;;;10.78;51.65;102960.22;5092415;27;47179;-69
2022/02/11 14:15:16;;;;;;;;;8.25;4.50;;;;;10.78;51.85;102964.66;5085886;27;45466;-69
2022/02/11 14:17:44;;;;;;;;;8.75;8.00;;;;;10.83;51.45;102950.41;5097916;27;45800;-70
2022/02/11 14:20:10;;;;;;;;;7.00;5.00;;;;;10.84;51.88;102951.31;5097728;27;45401;-68
2022/02/11 14:22:37;;;;;;;;;10.50;5.25;;;;;10.72;50.93;102933.47;5096989;27;47923;-73
2022/02/11 14:25:03;;;;;;;;;3.75;3.75;;;;;10.72;51.20;102952.16;5094501;27;45749;-69
2022/02/11 14:27:29;;;;;;;;;5.75;4.50;;;;;10.77;50.99;102961.09;5098325;27;45369;-69
2022/02/11 14:29:54;;;;;;;;;6.75;6.00;;;;;10.66;50.86;102946.81;5100008;27;45231;-69
2022/02/11 14:32:19;;;;;;;;;7.25;5.00;;;;;10.66;50.53;102945.03;5099656;27;46427;-70
2022/02/11 14:34:45;;;;;;;;;8.50;8.00;;;;;10.64;50.72;102960.19;5082590;27;45353;-70
2022/02/11 14:37:10;;;;;;;;;5.00;3.00;;;;;10.67;50.75;102965.50;5096947;27;45306;-69
2022/02/11 14:39:36;;;;;;;;;3.00;3.00;;;;;10.65;50.98;102961.06;5099644;27;45477;-74
2022/02/11 14:42:03;;;;;;;;;3.00;3.00;;;;;10.61;50.79;102952.16;5094908;27;46240;-74
2022/02/11 14:44:31;;;;;;;;;11.00;7.00;;;;;10.65;50.68;102961.06;5097689;27;45393;-74
2022/02/11 14:47:00;;;;;;;;;5.50;5.00;;;;;10.64;50.58;102961.94;5098953;27;45475;-74
2022/02/11 14:49:26;;;;;;;;;4.00;2.75;;;;;10.60;49.71;102958.38;5098867;27;45550;-74
2022/02/11 14:51:55;;;;;;;;;3.00;3.00;;;;;10.65;50.55;102964.63;5095129;27;47158;-74
2022/02/11 14:54:21;;;;;;;;;4.00;3.25;;;;;10.65;50.24;102961.94;5085748;27;45472;-74
2022/02/11 14:56:48;;;;;;;;;8.00;4.00;;;;;10.65;50.55;102966.41;5097712;27;45453;-74
2022/02/11 14:59:14;;;;;;;;;4.75;4.75;;;;;10.64;50.20;102964.63;5085064;27;45514;-74
2022/02/11 15:01:41;;;;;;;;;5.00;3.00;;;;;10.61;49.65;102960.16;5095203;27;45608;-74
2022/02/11 15:04:07;;;;;;;;;2.75;2.75;;;;;10.63;49.48;102953.03;5098801;27;45942;-74
2022/02/11 15:06:34;;;;;;;;;3.00;3.00;;;;;10.70;49.85;102961.97;5092159;27;45314;-74
2022/02/11 15:09:01;;;;;;;;;5.00;4.00;;;;;10.70;49.89;102954.84;5094497;27;45492;-74
2022/02/11 15:11:27;;;;;;;;;3.50;3.50;;;;;10.61;49.12;102943.22;5098864;27;45588;-74
2022/02/11 15:13:53;;;;;;;;;5.75;3.25;;;;;10.68;49.36;102951.28;5109730;27;45801;-74
2022/02/11 15:16:18;;;;;;;;;7.00;4.25;;;;;10.65;49.87;102951.25;5095434;27;46010;-74
2022/02/11 15:18:43;;;;;;;;;4.75;4.00;;;;;10.64;49.94;102951.25;5096395;27;45436;-74
2022/02/11 15:21:09;;;;;;;;;3.50;3.50;;;;;10.69;50.19;102961.09;5098298;27;45478;-74
2022/02/11 15:23:36;;;;;;;;;6.50;4.50;;;;;10.60;49.89;102937.00;5100582;27;45322;-75
2022/02/11 15:26:05;;;;;;;;;4.00;4.00;;;;;10.66;50.30;102939.72;5100183;27;45681;-74
2022/02/11 15:28:32;;;;;;;;;9.00;4.25;;;;;10.70;49.88;102952.16;5100187;27;45329;-74